Time;durP1;ratioP1;P1;durP2;ratioP2;P2;SDS_P1;SDS_P2;PMS_P1;PMS_P2;Temp;Humidity;BMP_temperature;BMP_pressure;BME280_temperature;BME280_humidity;BME280_pressure;Samples;Min_cycle;Max_cycle;Signal;HPM_P1;HPM_P2
2023/02/28 00:01:34;;;;;;;9.57;5.18;;;;;;;1.94;79.35;103000.81;5098079;28;20146;-63
2023/02/28 00:04:02;;;;;;;10.25;5.05;;;;;;;1.92;79.30;103002.81;5114798;28;20043;-63
2023/02/28 00:06:30;;;;;;;13.35;5.40;;;;;;;1.76;79.63;103002.72;5114648;28;20107;-62
2023/02/28 00:08:57;;;;;;;9.13;4.88;;;;;;;1.68;80.21;102998.97;5114932;28;20040;-61
2023/02/28 00:11:25;;;;;;;10.93;5.32;;;;;;;1.67;80.37;102999.94;5113587;27;20042;-63
2023/02/28 00:13:53;;;;;;;9.50;5.57;;;;;;;1.61;80.52;102999.72;5095557;28;20101;-62
2023/02/28 00:16:22;;;;;;;12.57;5.35;;;;;;;1.60;80.70;102998.03;5112677;28;20060;-62
2023/02/28 00:18:50;;;;;;;13.10;5.78;;;;;;;1.55;80.77;102998.50;5097725;28;20052;-64
2023/02/28 00:21:19;;;;;;;12.63;5.88;;;;;;;1.60;81.91;102992.66;5098297;28;20047;-64
2023/02/28 00:23:47;;;;;;;10.75;5.32;;;;;;;1.68;81.59;102990.03;5115927;28;20047;-62
2023/02/28 00:26:15;;;;;;;10.05;5.20;;;;;;;1.78;80.78;102998.88;5113072;27;20075;-60
2023/02/28 00:28:45;;;;;;;10.48;5.28;;;;;;;1.85;80.43;102996.38;5114031;28;20093;-64
2023/02/28 00:31:14;;;;;;;10.43;5.55;;;;;;;1.90;80.33;103000.31;5115535;28;20108;-66
2023/02/28 00:33:42;;;;;;;12.18;5.22;;;;;;;1.96;79.75;102998.81;5096069;28;20055;-63
2023/02/28 00:36:11;;;;;;;9.85;5.30;;;;;;;1.98;79.33;102996.00;5096303;28;20123;-63
2023/02/28 00:38:40;;;;;;;10.00;5.00;;;;;;;1.94;79.16;102995.44;5113657;27;20118;-62
2023/02/28 00:41:08;;;;;;;10.60;5.22;;;;;;;1.87;79.48;102994.38;5078069;28;20068;-61
2023/02/28 00:43:37;;;;;;;10.05;5.18;;;;;;;1.82;79.84;102994.00;5087065;28;20460;-60
2023/02/28 00:46:05;;;;;;;10.73;5.25;;;;;;;1.83;79.77;102987.66;5079780;28;20062;-62
2023/02/28 00:48:33;;;;;;;10.00;5.13;;;;;;;1.85;79.98;102993.69;5096188;28;20048;-61
2023/02/28 00:51:01;;;;;;;11.15;4.90;;;;;;;1.87;80.02;102991.69;5108809;27;20059;-64
2023/02/28 00:53:29;;;;;;;8.43;5.20;;;;;;;1.90;79.86;102983.31;5115530;28;20079;-62
2023/02/28 00:55:58;;;;;;;11.15;5.30;;;;;;;1.89;79.97;102987.00;5114416;28;20052;-64
2023/02/28 00:58:26;;;;;;;13.07;5.15;;;;;;;1.89;79.52;102987.84;5097361;28;20062;-61
2023/02/28 01:00:55;;;;;;;8.75;4.75;;;;;;;1.83;79.60;102993.03;5096171;28;20075;-63
2023/02/28 01:03:22;;;;;;;11.57;5.70;;;;;;;1.76;79.98;102997.34;5077602;28;20036;-63
2023/02/28 01:05:52;;;;;;;9.15;5.10;;;;;;;1.70;80.60;102996.09;5077488;28;20460;-62
2023/02/28 01:08:20;;;;;;;10.27;5.40;;;;;;;1.74;80.70;102993.97;5094945;28;20102;-62
2023/02/28 01:10:48;;;;;;;10.68;4.95;;;;;;;1.73;80.51;103003.00;5077687;28;20050;-63
2023/02/28 01:13:16;;;;;;;10.13;4.95;;;;;;;1.73;80.60;103005.69;5094232;28;20044;-63
2023/02/28 01:15:51;;;;;;;9.20;4.93;;;;;;;1.65;80.54;103001.94;5095185;27;20074;-62
2023/02/28 01:18:20;;;;;;;10.55;5.20;;;;;;;1.58;81.46;103011.63;5077980;28;20083;-64
2023/02/28 01:20:48;;;;;;;11.95;5.03;;;;;;;1.59;81.39;103002.56;5097651;28;20040;-66
2023/02/28 01:23:16;;;;;;;9.05;4.90;;;;;;;1.57;81.48;103007.25;5108066;28;20056;-64
2023/02/28 01:25:44;;;;;;;8.30;4.72;;;;;;;1.55;81.44;103003.88;5106164;27;20054;-62
2023/02/28 01:28:12;;;;;;;10.57;5.50;;;;;;;1.53;81.69;103008.56;5101721;28;20044;-63
2023/02/28 01:30:40;;;;;;;8.13;4.32;;;;;;;1.56;81.87;103010.09;5100359;28;20067;-62
2023/02/28 01:33:07;;;;;;;9.77;4.88;;;;;;;1.61;82.07;103011.31;5118039;28;20047;-62
2023/02/28 01:35:36;;;;;;;12.65;4.78;;;;;;;1.67;81.79;103010.69;5117329;28;20043;-64
2023/02/28 01:38:04;;;;;;;11.80;4.65;;;;;;;1.68;81.48;103009.72;5120775;27;20058;-63
2023/02/28 01:40:48;;;;;;;8.73;4.43;;;;;;;1.67;81.31;103005.31;5115098;28;20044;-61
2023/02/28 01:43:25;;;;;;;9.57;4.80;;;;;;;1.66;81.30;103003.66;5098332;28;20044;-63
2023/02/28 01:45:56;;;;;;;7.60;4.75;;;;;;;1.66;81.42;103003.66;5094314;28;20044;-62
2023/02/28 01:48:34;;;;;;;9.43;4.70;;;;;;;1.65;81.13;102993.03;5094320;28;20345;-62
2023/02/28 01:51:03;;;;;;;;;;;;;;;1.60;81.37;102990.81;5093384;28;20400;-63
2023/02/28 01:53:34;;;;;;;9.35;4.75;;;;;;;1.52;81.79;102985.38;5090770;28;19920;-62
2023/02/28 01:56:06;;;;;;;8.73;4.47;;;;;;;1.49;82.37;102980.28;5112892;28;20073;-62
2023/02/28 01:58:34;;;;;;;9.48;4.68;;;;;;;1.55;82.83;102990.44;5112359;28;20044;-62
2023/02/28 02:01:02;;;;;;;8.50;4.53;;;;;;;1.63;82.84;102987.81;5112155;28;20131;-63
2023/02/28 02:03:31;;;;;;;8.70;4.72;;;;;;;1.63;82.41;102993.19;5113338;27;20047;-62
2023/02/28 02:05:59;;;;;;;9.13;4.57;;;;;;;1.56;82.25;102994.81;5112481;28;20134;-63
2023/02/28 02:08:28;;;;;;;9.23;4.72;;;;;;;1.53;82.46;102989.75;5113333;28;20062;-63
2023/02/28 02:10:59;;;;;;;7.35;4.10;;;;;;;1.46;83.17;102983.31;5113979;28;20507;-61
2023/02/28 02:13:55;;;;;;;9.02;4.75;;;;;;;1.42;83.62;102979.22;5095236;28;20484;-62
2023/02/28 02:16:25;;;;;;;;;;;;;;;1.38;83.64;102977.88;5114970;28;20051;-63
2023/02/28 02:19:23;;;;;;;9.65;4.60;;;;;;;1.35;84.30;102983.53;5113404;28;20330;-64
2023/02/28 02:22:24;;;;;;;9.57;4.80;;;;;;;1.33;84.43;102977.50;5099937;27;20036;-63
2023/02/28 02:24:56;;;;;;;9.73;4.70;;;;;;;1.24;85.10;102980.06;5085592;28;20058;-62
2023/02/28 02:27:32;;;;;;;9.57;4.85;;;;;;;1.22;85.86;102979.38;5113543;28;20524;-62
2023/02/28 02:30:08;;;;;;;;;;;;;;;1.32;85.04;102978.47;5096032;28;20055;-62
2023/02/28 02:32:53;;;;;;;8.70;4.70;;;;;;;1.36;85.49;102974.47;5061047;28;20006;-62
2023/02/28 02:35:27;;;;;;;8.98;4.50;;;;;;;1.42;85.20;102979.22;5112871;28;20462;-64
2023/02/28 02:38:07;;;;;;;8.55;4.45;;;;;;;1.48;85.01;102978.63;5112331;28;20047;-63
2023/02/28 02:41:07;;;;;;;11.35;4.65;;;;;;;1.46;84.37;102975.25;5113437;28;20047;-64
2023/02/28 02:43:44;;;;;;;8.18;4.57;;;;;;;1.43;84.44;102975.56;5081047;28;20083;-63
2023/02/28 02:46:39;;;;;;;8.35;4.20;;;;;;;1.34;84.86;102973.78;5115424;28;20048;-65
2023/02/28 02:49:10;;;;;;;9.65;4.70;;;;;;;1.24;85.49;102980.06;5117243;28;20225;-61
2023/02/28 02:51:39;;;;;;;9.60;4.63;;;;;;;1.18;86.11;102969.97;5117867;28;20447;-65
2023/02/28 02:54:11;;;;;;;8.90;4.55;;;;;;;1.19;85.82;102976.16;5098969;28;20056;-63
2023/02/28 02:56:42;;;;;;;10.60;4.90;;;;;;;1.19;86.13;102971.63;5083000;28;20064;-63
2023/02/28 02:59:13;;;;;;;11.93;4.75;;;;;;;1.17;86.32;102975.47;5081883;28;20078;-64
2023/02/28 03:01:41;;;;;;;10.20;4.70;;;;;;;1.18;86.12;102971.78;5090918;28;20555;-64
2023/02/28 03:04:18;;;;;;;9.90;4.43;;;;;;;1.18;85.62;102988.75;5110345;28;20044;-64
2023/02/28 03:06:47;;;;;;;9.88;4.60;;;;;;;1.22;86.15;102971.31;5113153;28;20048;-62
2023/02/28 03:09:15;;;;;;;9.40;4.35;;;;;;;1.30;86.07;102969.72;5113451;28;20043;-63
2023/02/28 03:11:42;;;;;;;8.32;4.50;;;;;;;1.36;85.48;102977.16;5112897;28;20070;-63
2023/02/28 03:14:37;;;;;;;11.05;4.88;;;;;;;1.31;85.08;102968.72;5110987;28;20044;-62
2023/02/28 03:17:28;;;;;;;9.52;4.20;;;;;;;1.31;85.09;102976.78;5114865;28;20039;-62
2023/02/28 03:20:17;;;;;;;11.82;4.53;;;;;;;1.25;85.21;102984.47;5093017;28;20609;-64
2023/02/28 03:22:56;;;;;;;7.38;4.25;;;;;;;1.25;85.54;102973.72;5091774;28;20098;-62
2023/02/28 03:25:50;;;;;;;8.13;4.30;;;;;;;1.27;85.12;102971.72;5093782;28;20076;-64
2023/02/28 03:28:39;;;;;;;8.30;4.35;;;;;;;1.25;85.05;102968.34;5111611;28;20048;-64
2023/02/28 03:31:32;;;;;;;8.68;4.45;;;;;;;1.17;85.72;102979.00;5092244;28;20071;-62
2023/02/28 03:34:18;;;;;;;8.88;4.18;;;;;;;1.21;85.73;102972.34;5096543;28;20446;-63
2023/02/28 03:36:50;;;;;;;;;;;;;;;1.28;85.41;102973.41;5096998;28;20099;-62
2023/02/28 03:39:22;;;;;;;8.20;4.30;;;;;;;1.31;85.05;102982.16;5097516;28;19977;-62
2023/02/28 03:41:57;;;;;;;7.63;4.40;;;;;;;1.33;85.13;102980.16;5104309;27;20487;-62
2023/02/28 03:44:34;;;;;;;8.88;4.63;;;;;;;1.34;84.79;102976.47;5098200;28;20055;-62
2023/02/28 03:47:17;;;;;;;9.38;4.45;;;;;;;1.30;85.31;102969.72;5115275;28;20062;-62
2023/02/28 03:50:22;;;;;;;9.35;4.15;;;;;;;1.28;85.43;102973.41;5116362;28;20521;-62
2023/02/28 03:53:06;;;;;;;8.32;3.92;;;;;;;1.30;85.39;102977.78;5115273;28;20139;-62
2023/02/28 03:55:39;;;;;;;12.05;4.53;;;;;;;1.32;85.25;102978.47;5114018;27;20039;-62
2023/02/28 03:58:17;;;;;;;10.68;4.07;;;;;;;1.30;84.64;102975.09;5094419;28;20051;-64
2023/02/28 04:00:49;;;;;;;9.30;4.40;;;;;;;1.28;84.43;102976.09;5089805;28;20044;-62
2023/02/28 04:03:18;;;;;;;9.00;4.30;;;;;;;1.24;84.70;102976.56;5092680;28;20056;-64
2023/02/28 04:05:55;;;;;;;9.48;4.35;;;;;;;1.30;85.11;102962.53;5046580;27;20512;-63
2023/02/28 04:08:23;;;;;;;8.25;4.22;;;;;;;1.35;84.46;102972.78;5115312;28;20048;-63
2023/02/28 04:11:04;;;;;;;8.65;4.10;;;;;;;1.44;83.99;102974.53;5116164;28;20043;-63
2023/02/28 04:13:32;;;;;;;8.45;4.43;;;;;;;1.47;83.74;102971.56;5115482;28;20039;-62
2023/02/28 04:16:00;;;;;;;6.78;4.03;;;;;;;1.49;82.69;102972.22;5112521;28;20047;-62
2023/02/28 04:18:27;;;;;;;7.68;3.83;;;;;;;1.47;82.98;102966.19;5117012;28;20055;-64
2023/02/28 04:20:55;;;;;;;7.82;3.80;;;;;;;1.45;82.60;102976.25;5118425;28;20097;-63
2023/02/28 04:23:23;;;;;;;7.95;3.90;;;;;;;1.44;82.27;102974.53;5119878;28;20050;-62
2023/02/28 04:25:51;;;;;;;8.82;4.15;;;;;;;1.41;82.59;102977.53;5124523;27;20053;-62
2023/02/28 04:28:18;;;;;;;8.40;3.90;;;;;;;1.38;82.91;102978.69;5122993;28;20051;-60
2023/02/28 04:30:46;;;;;;;9.73;4.43;;;;;;;1.36;82.39;102971.81;5128077;28;20055;-62
2023/02/28 04:33:13;;;;;;;9.63;4.25;;;;;;;1.41;82.75;102981.06;5132369;28;20122;-60
2023/02/28 04:35:41;;;;;;;8.82;4.30;;;;;;;1.49;82.15;102977.59;5131772;28;20099;-57
2023/02/28 04:38:09;;;;;;;9.07;3.90;;;;;;;1.53;82.18;102981.69;5133964;28;20070;-61
2023/02/28 04:40:36;;;;;;;8.63;4.07;;;;;;;1.59;82.21;102983.75;5137276;27;20035;-62
2023/02/28 04:43:04;;;;;;;8.13;4.15;;;;;;;1.62;81.79;102983.44;5143177;27;20039;-55
2023/02/28 04:45:33;;;;;;;7.80;3.90;;;;;;;1.65;81.70;102985.81;5151462;27;20047;-56
2023/02/28 04:48:01;;;;;;;7.50;4.10;;;;;;;1.70;81.32;102988.88;5151048;27;20051;-61
2023/02/28 04:50:29;;;;;;;7.88;4.22;;;;;;;1.71;81.32;102973.63;5137393;27;20047;-61
2023/02/28 04:52:57;;;;;;;6.85;3.95;;;;;;;1.73;81.25;102987.72;5120970;27;20035;-63
2023/02/28 04:55:25;;;;;;;8.23;4.10;;;;;;;1.73;81.13;102989.56;5109150;28;20043;-62
2023/02/28 04:57:52;;;;;;;7.40;4.20;;;;;;;1.74;81.36;102991.28;5114938;28;20414;-63
2023/02/28 05:00:20;;;;;;;8.95;4.43;;;;;;;1.70;81.15;102996.94;5103110;27;20082;-63
2023/02/28 05:02:48;;;;;;;8.07;4.18;;;;;;;1.66;81.70;102992.03;5075303;28;20052;-64
2023/02/28 05:05:17;;;;;;;7.90;4.03;;;;;;;1.64;81.78;102992.19;5094666;28;20403;-63
2023/02/28 05:07:45;;;;;;;8.15;4.28;;;;;;;1.65;82.26;102990.34;5093032;28;20048;-65
2023/02/28 05:10:13;;;;;;;8.32;4.05;;;;;;;1.68;82.53;102993.59;5098977;28;20036;-63
2023/02/28 05:12:41;;;;;;;9.07;4.13;;;;;;;1.67;82.14;102999.94;5113065;28;20122;-64
2023/02/28 05:15:13;;;;;;;8.10;4.03;;;;;;;1.66;82.68;102998.28;5103605;27;20409;-64
2023/02/28 05:17:41;;;;;;;7.85;4.47;;;;;;;1.61;81.61;102999.72;5091630;28;20040;-63
2023/02/28 05:20:16;;;;;;;7.43;4.00;;;;;;;1.54;82.25;103002.19;5057984;28;20499;-64
2023/02/28 05:22:44;;;;;;;8.45;4.35;;;;;;;1.50;82.10;102992.75;5096942;27;20499;-65
2023/02/28 05:25:18;;;;;;;10.10;4.47;;;;;;;1.44;82.16;102996.03;5093402;28;20119;-63
2023/02/28 05:27:46;;;;;;;9.90;4.60;;;;;;;1.44;82.50;102990.66;5113023;28;20070;-64
2023/02/28 05:30:15;;;;;;;6.93;4.15;;;;;;;1.43;82.34;102991.69;5111581;28;20085;-64
2023/02/28 05:32:43;;;;;;;9.82;4.50;;;;;;;1.45;82.46;102989.69;5111941;28;20134;-63
2023/02/28 05:35:11;;;;;;;9.32;4.40;;;;;;;1.50;82.10;102990.06;5106226;27;20105;-64
2023/02/28 05:37:39;;;;;;;7.60;4.00;;;;;;;1.51;82.05;102999.78;5111072;28;20039;-65
2023/02/28 05:40:11;;;;;;;7.43;4.00;;;;;;;1.53;81.70;102997.81;5112815;28;20123;-65
2023/02/28 05:42:38;;;;;;;9.40;4.18;;;;;;;1.59;81.59;103007.94;5112888;28;20048;-66
2023/02/28 05:45:07;;;;;;;7.93;3.90;;;;;;;1.67;81.19;103002.63;5110313;28;20448;-64
2023/02/28 05:47:35;;;;;;;6.82;3.75;;;;;;;1.71;80.40;103003.19;5115020;27;20053;-65
2023/02/28 05:50:03;;;;;;;7.40;3.80;;;;;;;1.72;80.00;102998.63;5116151;28;20092;-65
2023/02/28 05:52:31;;;;;;;9.48;4.25;;;;;;;1.71;80.14;103008.56;5119401;28;20047;-65
2023/02/28 05:54:59;;;;;;;7.93;4.00;;;;;;;1.68;79.79;103001.66;5103234;28;20054;-63
2023/02/28 05:57:26;;;;;;;9.93;4.20;;;;;;;1.66;80.29;103009.03;5108868;28;20377;-64
2023/02/28 05:59:54;;;;;;;7.18;3.72;;;;;;;1.70;80.67;103014.91;5095771;27;20050;-63
2023/02/28 06:02:21;;;;;;;7.90;4.07;;;;;;;1.70;80.19;103026.50;5093890;28;20047;-62
2023/02/28 06:04:50;;;;;;;6.43;3.78;;;;;;;1.68;80.26;103017.78;5082316;28;20043;-64
2023/02/28 06:07:17;;;;;;;8.23;4.03;;;;;;;1.63;80.70;103014.69;5113661;28;20083;-62
2023/02/28 06:09:45;;;;;;;11.57;4.32;;;;;;;1.54;81.31;103021.00;5113607;28;20049;-63
2023/02/28 06:12:13;;;;;;;7.78;4.50;;;;;;;1.46;82.07;103013.69;5113095;27;20042;-64
2023/02/28 06:14:40;;;;;;;8.85;4.10;;;;;;;1.41;82.70;103026.72;5094918;28;20048;-62
2023/02/28 06:17:09;;;;;;;8.07;4.18;;;;;;;1.32;83.57;103016.91;5112274;28;20051;-63
2023/02/28 06:19:38;;;;;;;8.07;4.47;;;;;;;1.32;84.02;103022.28;5113464;28;20130;-63
2023/02/28 06:22:06;;;;;;;8.23;4.40;;;;;;;1.34;84.64;103030.19;5112507;28;20046;-62
2023/02/28 06:24:33;;;;;;;8.68;4.20;;;;;;;1.32;84.66;103032.19;5111360;27;20047;-63
2023/02/28 06:27:04;;;;;;;9.65;4.45;;;;;;;1.32;85.30;103030.31;5112090;28;20142;-62
2023/02/28 06:29:34;;;;;;;11.50;5.40;;;;;;;1.30;85.60;103023.41;5107966;28;20071;-63
2023/02/28 06:32:02;;;;;;;9.75;5.43;;;;;;;1.28;86.20;103027.13;5111972;28;20085;-64
2023/02/28 06:34:30;;;;;;;9.40;4.55;;;;;;;1.28;86.19;103037.84;5113548;28;20103;-63
2023/02/28 06:37:01;;;;;;;8.35;4.80;;;;;;;1.28;86.41;103040.53;5110966;28;20043;-63
2023/02/28 06:39:30;;;;;;;9.35;5.53;;;;;;;1.24;86.75;103044.53;5092701;28;20506;-62
2023/02/28 06:41:58;;;;;;;10.98;5.97;;;;;;;1.25;87.38;103027.44;5112771;28;20081;-62
2023/02/28 06:44:26;;;;;;;9.38;5.18;;;;;;;1.26;87.32;103029.09;5115382;28;20051;-62
2023/02/28 06:46:54;;;;;;;9.55;4.78;;;;;;;1.30;87.01;103029.66;5114769;28;20484;-62
2023/02/28 06:49:21;;;;;;;8.80;4.63;;;;;;;1.22;87.29;103033.09;5111952;28;20119;-63
2023/02/28 06:51:49;;;;;;;9.52;4.90;;;;;;;1.28;87.06;103042.41;5112180;28;20043;-64
2023/02/28 06:54:17;;;;;;;9.95;4.78;;;;;;;1.31;86.77;103041.25;5112126;28;20035;-66
2023/02/28 06:56:45;;;;;;;9.63;4.90;;;;;;;1.34;86.63;103049.00;4751670;28;10000572;-64
2023/02/28 06:59:12;;;;;;;10.40;4.70;;;;;;;1.35;85.73;103042.59;5088383;28;20113;-64
2023/02/28 07:01:40;;;;;;;8.40;4.32;;;;;;;1.32;85.64;103037.53;5078166;27;20146;-64
2023/02/28 07:04:08;;;;;;;9.60;4.45;;;;;;;1.28;85.33;103043.22;5109949;27;20055;-64
2023/02/28 07:06:36;;;;;;;9.75;4.30;;;;;;;1.30;85.37;103035.03;5097384;27;20135;-63
2023/02/28 07:09:04;;;;;;;7.50;4.63;;;;;;;1.35;85.21;103034.56;5112625;27;20078;-61
2023/02/28 07:11:32;;;;;;;7.57;4.10;;;;;;;1.37;85.13;103040.63;5095391;28;20048;-63
2023/02/28 07:14:00;;;;;;;9.52;4.43;;;;;;;1.42;84.28;103043.69;5102594;28;20048;-62
2023/02/28 07:16:28;;;;;;;12.40;4.28;;;;;;;1.42;83.69;103046.38;5109918;28;20159;-63
2023/02/28 07:18:55;;;;;;;8.85;4.28;;;;;;;1.40;82.95;103051.09;5092555;28;20055;-65
2023/02/28 07:21:23;;;;;;;9.80;4.57;;;;;;;1.40;82.99;103051.09;5096011;28;20541;-63
2023/02/28 07:23:51;;;;;;;9.80;4.30;;;;;;;1.46;84.25;103051.28;5096062;28;20072;-64
2023/02/28 07:26:20;;;;;;;10.80;4.88;;;;;;;1.50;83.67;103057.22;5091909;28;20040;-62
2023/02/28 07:28:49;;;;;;;8.80;4.47;;;;;;;1.55;83.68;103060.28;5116508;28;20520;-64
2023/02/28 07:31:18;;;;;;;9.10;4.15;;;;;;;1.62;83.29;103065.91;5096374;28;20072;-62
2023/02/28 07:33:46;;;;;;;10.07;4.18;;;;;;;1.66;81.41;103059.19;5077260;28;20055;-61
2023/02/28 07:36:16;;;;;;;12.00;4.65;;;;;;;1.67;80.04;103068.97;5105036;28;20053;-64
2023/02/28 07:38:47;;;;;;;9.63;4.97;;;;;;;1.59;80.12;103064.38;5115678;28;20040;-62
2023/02/28 07:41:16;;;;;;;10.73;5.05;;;;;;;1.54;80.36;103069.34;5115270;28;20449;-62
2023/02/28 07:43:44;;;;;;;7.18;4.32;;;;;;;1.56;79.77;103071.88;5099312;27;20167;-62
2023/02/28 07:46:15;;;;;;;9.98;5.00;;;;;;;1.51;78.73;103075.00;5098018;27;20329;-64
2023/02/28 07:48:43;;;;;;;9.35;4.50;;;;;;;1.53;78.99;103073.03;5094495;28;20052;-61
2023/02/28 07:51:11;;;;;;;8.25;4.43;;;;;;;1.55;77.35;103079.09;5078077;28;20050;-63
2023/02/28 07:53:39;;;;;;;7.05;3.80;;;;;;;1.58;75.97;103069.88;5078093;28;20044;-62
2023/02/28 07:56:07;;;;;;;8.05;3.95;;;;;;;1.68;75.63;103076.03;5080338;28;20051;-62
2023/02/28 07:58:34;;;;;;;8.07;3.50;;;;;;;1.75;74.38;103076.25;5113421;28;20071;-62
2023/02/28 08:01:10;;;;;;;6.03;3.40;;;;;;;1.82;73.07;103071.97;5111052;28;20049;-63
2023/02/28 08:03:39;;;;;;;8.45;3.42;;;;;;;1.90;72.75;103077.38;5103377;28;20052;-62
2023/02/28 08:06:08;;;;;;;7.70;3.40;;;;;;;1.88;69.28;103076.72;5103389;28;20043;-62
2023/02/28 08:08:36;;;;;;;5.43;3.28;;;;;;;1.95;67.28;103072.44;5078651;27;21326;-61
2023/02/28 08:11:04;;;;;;;8.50;3.20;;;;;;;1.99;65.52;103089.06;5113893;27;20047;-64
2023/02/28 08:13:32;;;;;;;6.15;3.08;;;;;;;2.01;64.43;103079.84;5094631;28;20046;-62
2023/02/28 08:16:02;;;;;;;6.28;3.08;;;;;;;2.02;63.30;103084.25;5107588;28;20036;-60
2023/02/28 08:18:30;;;;;;;6.35;2.70;;;;;;;2.05;64.08;103078.53;5097162;28;20054;-63
2023/02/28 08:20:58;;;;;;;5.00;3.03;;;;;;;2.15;63.97;103081.16;5115456;27;20499;-62
2023/02/28 08:23:26;;;;;;;5.72;2.65;;;;;;;2.19;60.94;103085.22;5116327;28;20050;-62
2023/02/28 08:25:57;;;;;;;6.55;2.65;;;;;;;2.13;61.11;103083.97;5107313;28;20048;-62
2023/02/28 08:28:25;;;;;;;4.93;3.00;;;;;;;2.13;60.36;103080.44;5095078;28;20131;-63
2023/02/28 08:30:55;;;;;;;4.70;2.72;;;;;;;2.13;58.92;103075.06;5109758;27;20062;-63
2023/02/28 08:33:24;;;;;;;5.03;2.65;;;;;;;2.16;59.58;103079.28;5116673;28;20055;-62
2023/02/28 08:35:56;;;;;;;5.45;2.80;;;;;;;2.22;59.07;103078.69;5115702;28;20110;-63
2023/02/28 08:38:24;;;;;;;7.95;3.28;;;;;;;2.38;59.85;103072.56;5122914;28;20188;-64
2023/02/28 08:40:58;;;;;;;5.50;2.75;;;;;;;2.38;57.80;103081.47;5111517;27;20099;-63
2023/02/28 08:43:26;;;;;;;5.47;2.78;;;;;;;2.30;57.43;103070.66;5125132;28;20047;-64
2023/02/28 08:45:56;;;;;;;9.43;3.38;;;;;;;2.27;57.61;103065.59;5131482;28;20044;-64
2023/02/28 08:48:28;;;;;;;6.15;2.97;;;;;;;2.27;57.34;103070.97;5116920;28;20055;-59
2023/02/28 08:51:06;;;;;;;8.52;3.20;;;;;;;2.26;58.05;103074.66;5117271;27;20043;-62
2023/02/28 08:53:36;;;;;;;10.00;3.45;;;;;;;2.29;57.30;103074.38;5116274;28;20100;-64
2023/02/28 08:56:12;;;;;;;5.75;2.90;;;;;;;2.27;56.42;103079.06;5087534;28;20048;-64
2023/02/28 08:58:41;;;;;;;5.00;2.70;;;;;;;2.27;56.49;103077.19;5094632;28;20060;-61
2023/02/28 09:01:29;;;;;;;10.02;3.38;;;;;;;2.31;57.02;103083.13;5096872;27;20044;-64
2023/02/28 09:04:13;;;;;;;9.70;3.42;;;;;;;2.34;55.55;103088.19;4950294;27;10000908;-64
2023/02/28 09:06:48;;;;;;;13.88;4.25;;;;;;;2.41;55.79;103089.25;5111936;27;20292;-65
2023/02/28 09:09:16;;;;;;;10.50;3.83;;;;;;;2.46;55.98;103081.53;5111145;27;20403;-64
2023/02/28 09:11:44;;;;;;;18.10;4.78;;;;;;;2.52;55.65;103082.75;5110621;27;20044;-65
2023/02/28 09:14:11;;;;;;;9.18;3.53;;;;;;;2.58;56.40;103081.28;5089702;28;20492;-65
2023/02/28 09:16:39;;;;;;;10.18;3.22;;;;;;;2.60;56.44;103079.25;5105653;28;20051;-63
2023/02/28 09:19:07;;;;;;;11.57;4.28;;;;;;;2.66;56.50;103078.63;5108224;28;20085;-64
2023/02/28 09:21:34;;;;;;;21.23;5.57;;;;;;;2.69;56.28;103078.28;5091306;27;20052;-64
2023/02/28 09:24:02;;;;;;;26.23;6.95;;;;;;;2.70;54.45;103080.00;5086727;28;20147;-62
2023/02/28 09:26:29;;;;;;;15.95;5.22;;;;;;;2.70;54.51;103082.69;5111371;28;20063;-63
2023/02/28 09:29:09;;;;;;;12.45;3.55;;;;;;;2.69;53.29;103075.59;5109278;27;20087;-63
2023/02/28 09:31:37;;;;;;;7.53;2.60;;;;;;;2.66;52.33;103086.69;5094579;27;20099;-64
2023/02/28 09:34:05;;;;;;;13.65;4.78;;;;;;;2.66;53.72;103075.94;5088711;28;20516;-63
2023/02/28 09:36:34;;;;;;;4.15;2.45;;;;;;;2.68;52.17;103079.31;5091776;28;20454;-64
2023/02/28 09:39:12;;;;;;;3.72;2.08;;;;;;;2.67;50.21;103083.00;5074353;28;20060;-64
2023/02/28 09:41:50;;;;;;;6.13;2.67;;;;;;;2.66;51.61;103082.16;5106951;27;20087;-64
2023/02/28 09:44:37;;;;;;;14.18;3.55;;;;;;;2.68;50.68;103071.22;5098354;28;20051;-64
2023/02/28 09:47:11;;;;;;;11.10;4.05;;;;;;;2.66;49.96;103081.31;5094099;28;20142;-64
2023/02/28 09:49:42;;;;;;;11.15;4.05;;;;;;;2.63;49.33;103076.25;5117082;28;20222;-64
2023/02/28 09:52:19;;;;;;;7.68;3.13;;;;;;;2.69;49.74;103075.59;5117460;27;20048;-65
2023/02/28 09:54:47;;;;;;;;;;;;;;;2.73;50.21;103066.22;5091137;28;20036;-64
2023/02/28 09:57:19;;;;;;;10.93;4.13;;;;;;;2.83;50.34;103077.69;5107317;28;20337;-65
2023/02/28 10:00:10;;;;;;;13.60;3.65;;;;;;;2.77;48.54;103072.97;5099412;28;20138;-64
2023/02/28 10:02:56;;;;;;;4.30;2.55;;;;;;;2.79;48.39;103065.59;5095403;27;20056;-63
2023/02/28 10:05:39;;;;;;;4.72;2.55;;;;;;;2.82;48.02;103070.63;5089512;28;20052;-64
2023/02/28 10:08:36;;;;;;;4.07;2.40;;;;;;;2.82;48.07;103067.94;5076484;28;20056;-63
2023/02/28 10:11:08;;;;;;;6.18;2.78;;;;;;;2.86;48.74;103061.25;5088657;28;20360;-63
2023/02/28 10:14:01;;;;;;;3.25;2.10;;;;;;;2.88;46.45;103069.13;5103369;28;20048;-63
2023/02/28 10:16:51;;;;;;;5.28;2.50;;;;;;;2.93;47.06;103062.25;5091144;27;20139;-63
2023/02/28 10:19:47;;;;;;;7.55;2.95;;;;;;;2.95;46.58;103064.78;5108505;27;20112;-64
2023/02/28 10:22:44;;;;;;;4.00;2.57;;;;;;;2.96;46.44;103056.56;5086988;28;20507;-63
2023/02/28 10:25:25;;;;;;;6.38;2.42;;;;;;;2.96;46.77;103058.41;5092019;28;20300;-63
2023/02/28 10:28:21;;;;;;;3.92;2.60;;;;;;;2.92;46.21;103059.75;5088515;28;20051;-64
2023/02/28 10:30:53;;;;;;;6.45;2.60;;;;;;;2.95;46.97;103054.84;5096510;28;20519;-62
2023/02/28 10:33:30;;;;;;;6.68;3.05;;;;;;;3.01;47.02;103057.91;5103305;28;20130;-63
2023/02/28 10:35:58;;;;;;;;;;;;;;;3.15;46.88;103054.59;5102855;28;20040;-64
2023/02/28 10:38:29;;;;;;;4.53;2.30;;;;;;;3.07;45.72;103068.03;5107956;28;19919;-64
2023/02/28 10:41:05;;;;;;;3.10;2.10;;;;;;;3.01;45.20;103058.78;5108305;28;20050;-64
2023/02/28 10:43:33;;;;;;;;;;;;;;;3.01;45.67;103058.78;5110879;28;20052;-64
2023/02/28 10:46:10;;;;;;;3.53;2.20;;;;;;;3.03;45.12;103062.16;5092760;28;20014;-63
2023/02/28 10:48:49;;;;;;;5.50;2.63;;;;;;;3.06;45.13;103059.13;5098503;28;20056;-63
2023/02/28 10:51:19;;;;;;;5.00;2.47;;;;;;;3.09;46.09;103047.19;5102781;28;20044;-62
2023/02/28 10:53:56;;;;;;;3.50;2.40;;;;;;;3.12;45.66;103044.16;5111577;28;20055;-62
2023/02/28 10:56:29;;;;;;;5.15;2.53;;;;;;;3.11;45.57;103042.47;5096236;28;20043;-62
2023/02/28 10:59:27;;;;;;;4.43;2.53;;;;;;;3.13;45.03;103040.47;5099273;28;20067;-64
2023/02/28 11:01:54;;;;;;;3.47;2.50;;;;;;;3.17;46.05;103045.34;5097586;28;20380;-65
2023/02/28 11:04:29;;;;;;;6.90;2.55;;;;;;;3.19;44.44;103034.41;5098333;28;20044;-65
2023/02/28 11:06:59;;;;;;;3.78;2.47;;;;;;;3.17;44.53;103037.25;5093877;28;20151;-65
2023/02/28 11:09:29;;;;;;;6.57;2.60;;;;;;;3.22;45.25;103047.53;5105407;28;20055;-66
2023/02/28 11:11:56;;;;;;;2.85;2.25;;;;;;;3.26;44.91;103032.75;5105537;28;20122;-65
2023/02/28 11:14:34;;;;;;;10.15;3.60;;;;;;;3.40;47.39;103025.88;5090350;28;20500;-66
2023/02/28 11:17:15;;;;;;;3.67;2.40;;;;;;;3.41;45.25;103027.56;5091955;28;20539;-64
2023/02/28 11:19:50;;;;;;;3.85;2.40;;;;;;;3.41;45.58;103030.25;5107679;28;20051;-65
2023/02/28 11:22:23;;;;;;;4.18;2.33;;;;;;;3.48;45.53;103033.13;5094971;28;20182;-65
2023/02/28 11:24:55;;;;;;;4.43;2.72;;;;;;;3.53;45.28;103025.38;5109740;28;20484;-65
2023/02/28 11:27:33;;;;;;;4.18;2.42;;;;;;;3.55;44.96;103018.81;5096899;28;20036;-64
2023/02/28 11:30:01;;;;;;;5.50;2.70;;;;;;;3.60;45.42;103021.00;5105549;28;20050;-65
2023/02/28 11:32:31;;;;;;;7.30;2.90;;;;;;;3.61;45.87;103023.53;5113894;28;20071;-64
2023/02/28 11:35:10;;;;;;;7.57;2.60;;;;;;;3.63;46.36;103020.66;5111855;28;20040;-63
2023/02/28 11:37:39;;;;;;;3.33;2.30;;;;;;;3.62;45.52;103010.91;5114749;28;20108;-63
2023/02/28 11:40:18;;;;;;;4.40;2.40;;;;;;;3.60;44.85;103019.16;5110851;28;20064;-65
2023/02/28 11:42:45;;;;;;;6.15;2.65;;;;;;;3.60;45.88;103015.63;5105960;28;20534;-65
2023/02/28 11:45:46;;;;;;;3.03;2.33;;;;;;;3.60;45.00;103015.63;5092848;28;20052;-64
2023/02/28 11:48:17;;;;;;;2.65;2.25;;;;;;;3.58;44.77;103007.72;5115117;28;20089;-63
2023/02/28 11:50:56;;;;;;;2.90;2.33;;;;;;;3.58;44.64;103004.16;5115762;28;20097;-65
2023/02/28 11:53:30;;;;;;;4.18;2.75;;;;;;;3.62;45.51;103008.22;5113019;27;20411;-64
2023/02/28 11:56:39;;;;;;;4.85;2.47;;;;;;;3.67;44.35;103000.47;5087974;28;20066;-65
2023/02/28 11:59:43;;;;;;;4.65;2.78;;;;;;;3.82;57.10;102997.91;5096736;28;20048;-64